DuBois Regional Airport
KDUJ : now visible

Airfield :











YOU CAN JOIN US ON...

 
LOGIN :

Register | Disclaimer

   EN    FR    IT 

 









Legend :    VFR   Marginal VFR   IFR   Intensive IFR   Very Intensive IFR
Visi :
Ceiling :
>= 8 km
>= 3000ft
5 to 8 km
1000 to 3000 ft
1500m to 5 km
500 to 1000 ft
800 to 1500m
200 to 500 ft
< 800m
< 200 ft
Symbols :   Thunderstorms  Fog  Heavy snow  Heavy precipitations  Wind > 20 kt






- Airport Elevation : 1817 ft
- IATA code : DUJ


KDUJ - DuBois Regional

CURRENT METAR :
  • 142117Z AUTO 27012KT 1SM -SN BR OVC006 00/M01 A2937 RMK AO2 P0001 T00001011

EXPIRED METARs :
  • 142053Z AUTO 28012G19KT 1/2SM -SN FG OVC006 00/M01 A2936 RMK AO2 SLP953 P0000 60007 T00001011 51018
  • 142008Z AUTO 28013G17KT 1SM -SN BR BKN005 OVC012 00/M01 A2934 RMK AO2 P0000 T00001011
  • 141953Z AUTO 27011G17KT 3/4SM -SN BR OVC006 00/M01 A2933 RMK AO2 SLP943 P0003 T00001011
  • 141933Z AUTO 28010G19KT 3/4SM -SN BR BKN005 OVC009 01/M01 A2932 RMK AO2 P0002 T00061011
  • 141905Z AUTO 29009KT 1 3/4SM -SN BR BKN008 OVC016 01/M01 A2931 RMK AO2 P0000 T00061006
  • 141853Z AUTO 30010KT 4SM -SN BR BKN006 BKN010 OVC018 01/00 A2930 RMK AO2 RAE1755UPB1755E32SNB32 SLP933 P0004 T00110000

TAF KDUJ
Valid from the 14 at 19:00 until the 15 at 18:00 UTC


141843Z 1419/1518 28014G23KT 2SM -SHSN OVC006
FM150400 27014G23KT 4SM -SHSN VCSH OVC007
FM150900 27014G24KT 6SM -SHSN OVC008
FM151200 27010G22KT P6SM OVC012



MET'MAP, your aeronautical weather chart ! - Copyright ORBIFLY December 2007 - Disclaimer

ORBIFLY MET'MAP TEAM :

Programming & Development : Alexandra Zaïnal
Concept & original design : Baudouin d'Aumeries
Assistance for programming : Marc-Olivier Méhu
Technical & hardware support : Manuel Goepfert

Contact : metmap@orbifly.com




SOURCES & CREDITS :

   NOAA       Earth
Advisory